sensor_id;sensor_type;location;lat;lon;timestamp;pressure;altitude;pressure_sealevel;temperature;humidity
54592;BME280;40488;48.558;18.150;2023-10-13T00:02:18;99759.47;;;16.69;91.79
54592;BME280;40488;48.558;18.150;2023-10-13T00:05:00;99747.50;;;16.67;91.72
54592;BME280;40488;48.558;18.150;2023-10-13T00:07:39;99753.50;;;16.66;91.60
54592;BME280;40488;48.558;18.150;2023-10-13T00:10:09;99758.66;;;16.66;92.12
54592;BME280;40488;48.558;18.150;2023-10-13T00:12:41;99764.63;;;16.68;92.00
54592;BME280;40488;48.558;18.150;2023-10-13T00:15:17;99761.22;;;16.67;91.88
54592;BME280;40488;48.558;18.150;2023-10-13T00:17:50;99748.28;;;16.69;92.25
54592;BME280;40488;48.558;18.150;2023-10-13T00:20:20;99756.03;;;16.69;92.23
54592;BME280;40488;48.558;18.150;2023-10-13T00:23:03;99748.41;;;16.64;91.92
54592;BME280;40488;48.558;18.150;2023-10-13T00:25:33;99746.75;;;16.62;92.17
54592;BME280;40488;48.558;18.150;2023-10-13T00:28:12;99740.69;;;16.63;92.41
54592;BME280;40488;48.558;18.150;2023-10-13T00:30:51;99744.13;;;16.63;92.27
54592;BME280;40488;48.558;18.150;2023-10-13T00:33:20;99737.25;;;16.64;92.30
54592;BME280;40488;48.558;18.150;2023-10-13T00:35:50;99722.66;;;16.63;92.28
54592;BME280;40488;48.558;18.150;2023-10-13T00:38:19;99731.13;;;16.68;92.26
54592;BME280;40488;48.558;18.150;2023-10-13T00:40:51;99722.59;;;16.66;92.28
54592;BME280;40488;48.558;18.150;2023-10-13T00:43:23;99734.66;;;16.64;92.18
54592;BME280;40488;48.558;18.150;2023-10-13T00:46:02;99729.44;;;16.67;92.35
54592;BME280;40488;48.558;18.150;2023-10-13T00:48:37;99711.44;;;16.65;92.12
54592;BME280;40488;48.558;18.150;2023-10-13T00:51:21;99714.91;;;16.64;92.45
54592;BME280;40488;48.558;18.150;2023-10-13T00:54:02;99717.59;;;16.60;92.35
54592;BME280;40488;48.558;18.150;2023-10-13T00:56:36;99716.75;;;16.59;92.51
54592;BME280;40488;48.558;18.150;2023-10-13T00:59:10;99729.69;;;16.56;92.58
54592;BME280;40488;48.558;18.150;2023-10-13T01:01:41;99733.97;;;16.57;92.58
54592;BME280;40488;48.558;18.150;2023-10-13T01:04:13;99731.41;;;16.56;92.34
54592;BME280;40488;48.558;18.150;2023-10-13T01:06:42;99725.47;;;16.54;92.55
54592;BME280;40488;48.558;18.150;2023-10-13T01:09:13;99732.38;;;16.52;92.68
54592;BME280;40488;48.558;18.150;2023-10-13T01:11:43;99743.50;;;16.54;92.74
54592;BME280;40488;48.558;18.150;2023-10-13T01:14:15;99740.06;;;16.55;92.71
54592;BME280;40488;48.558;18.150;2023-10-13T01:16:45;99736.50;;;16.59;92.72
54592;BME280;40488;48.558;18.150;2023-10-13T01:19:15;99732.16;;;16.61;92.80
54592;BME280;40488;48.558;18.150;2023-10-13T01:21:47;99732.22;;;16.59;92.50
54592;BME280;40488;48.558;18.150;2023-10-13T01:24:17;99744.31;;;16.56;92.54
54592;BME280;40488;48.558;18.150;2023-10-13T01:26:52;99756.44;;;16.52;92.58
54592;BME280;40488;48.558;18.150;2023-10-13T01:29:21;99762.47;;;16.50;92.62
54592;BME280;40488;48.558;18.150;2023-10-13T01:31:56;99757.31;;;16.50;92.58
54592;BME280;40488;48.558;18.150;2023-10-13T01:34:25;99753.84;;;16.51;92.49
54592;BME280;40488;48.558;18.150;2023-10-13T01:36:54;99755.59;;;16.49;92.56
54592;BME280;40488;48.558;18.150;2023-10-13T01:39:25;99766.84;;;16.46;92.56
54592;BME280;40488;48.558;18.150;2023-10-13T01:41:54;99754.81;;;16.47;92.56
54592;BME280;40488;48.558;18.150;2023-10-13T01:44:24;99754.06;;;16.42;92.60
54592;BME280;40488;48.558;18.150;2023-10-13T01:46:54;99752.41;;;16.39;92.63
54592;BME280;40488;48.558;18.150;2023-10-13T01:49:23;99743.81;;;16.39;92.40
54592;BME280;40488;48.558;18.150;2023-10-13T01:51:51;99744.84;;;16.32;92.41
54592;BME280;40488;48.558;18.150;2023-10-13T01:54:20;99730.34;;;16.28;92.47
54592;BME280;40488;48.558;18.150;2023-10-13T01:56:50;99737.28;;;16.26;92.68
54592;BME280;40488;48.558;18.150;2023-10-13T01:59:19;99716.72;;;16.23;92.62
54592;BME280;40488;48.558;18.150;2023-10-13T02:01:47;99718.50;;;16.21;92.53
54592;BME280;40488;48.558;18.150;2023-10-13T02:04:19;99726.97;;;16.26;92.95
54592;BME280;40488;48.558;18.150;2023-10-13T02:06:49;99720.06;;;16.28;92.72
54592;BME280;40488;48.558;18.150;2023-10-13T02:09:19;99720.84;;;16.31;92.85
54592;BME280;40488;48.558;18.150;2023-10-13T02:11:54;99726.00;;;16.31;92.98
54592;BME280;40488;48.558;18.150;2023-10-13T02:14:24;99732.88;;;16.29;93.03
54592;BME280;40488;48.558;18.150;2023-10-13T02:16:53;99721.75;;;16.29;92.75
54592;BME280;40488;48.558;18.150;2023-10-13T02:19:40;99723.38;;;16.33;92.97
54592;BME280;40488;48.558;18.150;2023-10-13T02:22:14;99720.72;;;16.36;93.07
54592;BME280;40488;48.558;18.150;2023-10-13T02:24:55;99723.22;;;16.39;93.32
54592;BME280;40488;48.558;18.150;2023-10-13T02:27:34;99723.16;;;16.42;92.80
54592;BME280;40488;48.558;18.150;2023-10-13T02:30:09;99721.38;;;16.44;92.98
54592;BME280;40488;48.558;18.150;2023-10-13T02:32:42;99723.94;;;16.44;93.07
54592;BME280;40488;48.558;18.150;2023-10-13T02:35:12;99718.84;;;16.42;92.71
54592;BME280;40488;48.558;18.150;2023-10-13T02:37:44;99710.25;;;16.42;92.76
54592;BME280;40488;48.558;18.150;2023-10-13T02:40:22;99718.91;;;16.39;92.52
54592;BME280;40488;48.558;18.150;2023-10-13T02:42:52;99719.81;;;16.37;92.70
54592;BME280;40488;48.558;18.150;2023-10-13T02:45:21;99724.25;;;16.32;92.54
54592;BME280;40488;48.558;18.150;2023-10-13T02:47:53;99719.97;;;16.31;92.53
54592;BME280;40488;48.558;18.150;2023-10-13T02:50:40;99732.06;;;16.27;92.71
54592;BME280;40488;48.558;18.150;2023-10-13T02:53:13;99737.22;;;16.29;92.93
54592;BME280;40488;48.558;18.150;2023-10-13T02:55:52;99731.97;;;16.32;92.50
54592;BME280;40488;48.558;18.150;2023-10-13T02:58:24;99730.31;;;16.29;92.70
54592;BME280;40488;48.558;18.150;2023-10-13T03:01:06;99723.44;;;16.30;92.66
54592;BME280;40488;48.558;18.150;2023-10-13T03:03:48;99720.09;;;16.25;92.48
54592;BME280;40488;48.558;18.150;2023-10-13T03:06:20;99718.38;;;16.27;92.85
54592;BME280;40488;48.558;18.150;2023-10-13T03:08:52;99716.66;;;16.26;92.58
54592;BME280;40488;48.558;18.150;2023-10-13T03:11:20;99713.34;;;16.21;92.84
54592;BME280;40488;48.558;18.150;2023-10-13T03:13:53;99721.94;;;16.20;92.69
54592;BME280;40488;48.558;18.150;2023-10-13T03:16:21;99719.31;;;16.23;92.64
54592;BME280;40488;48.558;18.150;2023-10-13T03:18:50;99727.03;;;16.23;92.72
54592;BME280;40488;48.558;18.150;2023-10-13T03:21:23;99725.34;;;16.22;92.65
54592;BME280;40488;48.558;18.150;2023-10-13T03:23:59;99725.34;;;16.22;92.93
54592;BME280;40488;48.558;18.150;2023-10-13T03:26:32;99728.75;;;16.24;92.52
54592;BME280;40488;48.558;18.150;2023-10-13T03:29:06;99723.66;;;16.21;92.71
54592;BME280;40488;48.558;18.150;2023-10-13T03:31:41;99730.50;;;16.22;92.84
54592;BME280;40488;48.558;18.150;2023-10-13T03:34:13;99746.03;;;16.19;92.49
54592;BME280;40488;48.558;18.150;2023-10-13T03:36:43;99736.56;;;16.19;92.78
54592;BME280;40488;48.558;18.150;2023-10-13T03:39:23;99725.47;;;16.16;92.45
54592;BME280;40488;48.558;18.150;2023-10-13T03:41:57;99720.38;;;16.14;92.86
54592;BME280;40488;48.558;18.150;2023-10-13T03:44:28;99721.13;;;16.18;92.63
54592;BME280;40488;48.558;18.150;2023-10-13T03:46:58;99711.78;;;16.14;92.41
54592;BME280;40488;48.558;18.150;2023-10-13T03:49:45;99724.72;;;16.10;92.70
54592;BME280;40488;48.558;18.150;2023-10-13T03:52:19;99732.47;;;16.10;92.83
54592;BME280;40488;48.558;18.150;2023-10-13T03:54:50;99741.09;;;16.09;92.94
54592;BME280;40488;48.558;18.150;2023-10-13T03:57:19;99735.94;;;16.09;92.66
54592;BME280;40488;48.558;18.150;2023-10-13T03:59:50;99736.00;;;16.06;92.77
54592;BME280;40488;48.558;18.150;2023-10-13T04:02:21;99737.78;;;16.03;92.50
54592;BME280;40488;48.558;18.150;2023-10-13T04:04:54;99734.38;;;16.02;92.41
54592;BME280;40488;48.558;18.150;2023-10-13T04:07:35;99735.38;;;15.95;92.47
54592;BME280;40488;48.558;18.150;2023-10-13T04:10:09;99736.22;;;15.96;92.61
54592;BME280;40488;48.558;18.150;2023-10-13T04:12:50;99732.72;;;15.98;92.59
54592;BME280;40488;48.558;18.150;2023-10-13T04:15:29;99733.75;;;15.91;92.59
54592;BME280;40488;48.558;18.150;2023-10-13T04:18:09;99733.75;;;15.91;92.77
54592;BME280;40488;48.558;18.150;2023-10-13T04:21:01;99741.50;;;15.88;92.55
54592;BME280;40488;48.558;18.150;2023-10-13T04:23:46;99753.66;;;15.83;92.40
54592;BME280;40488;48.558;18.150;2023-10-13T04:26:24;99746.75;;;15.85;92.37
54592;BME280;40488;48.558;18.150;2023-10-13T04:29:05;99755.38;;;15.83;92.59
54592;BME280;40488;48.558;18.150;2023-10-13T04:31:39;99755.41;;;15.81;92.45
54592;BME280;40488;48.558;18.150;2023-10-13T04:34:17;99746.88;;;15.79;92.61
54592;BME280;40488;48.558;18.150;2023-10-13T04:36:55;99755.59;;;15.72;92.63
54592;BME280;40488;48.558;18.150;2023-10-13T04:39:45;99754.78;;;15.70;92.69
54592;BME280;40488;48.558;18.150;2023-10-13T04:42:24;99760.88;;;15.66;92.54
54592;BME280;40488;48.558;18.150;2023-10-13T04:45:09;99756.63;;;15.64;92.69
54592;BME280;40488;48.558;18.150;2023-10-13T04:48:07;99757.53;;;15.61;92.77
54592;BME280;40488;48.558;18.150;2023-10-13T04:50:46;99764.31;;;15.65;92.83
54592;BME280;40488;48.558;18.150;2023-10-13T04:53:18;99775.56;;;15.61;93.00
54592;BME280;40488;48.558;18.150;2023-10-13T04:56:04;99772.06;;;15.64;93.01
54592;BME280;40488;48.558;18.150;2023-10-13T04:58:58;99767.78;;;15.64;93.09
54592;BME280;40488;48.558;18.150;2023-10-13T05:01:47;99762.63;;;15.64;93.15
54592;BME280;40488;48.558;18.150;2023-10-13T05:04:37;99781.47;;;15.66;93.49
54592;BME280;40488;48.558;18.150;2023-10-13T05:07:27;99774.56;;;15.68;93.41
54592;BME280;40488;48.558;18.150;2023-10-13T05:10:06;99777.09;;;15.70;93.87
54592;BME280;40488;48.558;18.150;2023-10-13T05:12:44;99775.31;;;15.72;93.95
54592;BME280;40488;48.558;18.150;2023-10-13T05:15:23;99774.50;;;15.71;93.77
54592;BME280;40488;48.558;18.150;2023-10-13T05:18:02;99780.41;;;15.75;94.10
54592;BME280;40488;48.558;18.150;2023-10-13T05:20:42;99788.13;;;15.76;94.11
54592;BME280;40488;48.558;18.150;2023-10-13T05:23:21;99797.66;;;15.71;93.93
54592;BME280;40488;48.558;18.150;2023-10-13T05:26:02;99798.59;;;15.67;94.23
54592;BME280;40488;48.558;18.150;2023-10-13T05:28:40;99795.09;;;15.71;94.25
54592;BME280;40488;48.558;18.150;2023-10-13T05:31:30;99795.84;;;15.75;94.26
54592;BME280;40488;48.558;18.150;2023-10-13T05:34:16;99797.66;;;15.71;94.12
54592;BME280;40488;48.558;18.150;2023-10-13T05:36:57;99794.09;;;15.77;94.18
54592;BME280;40488;48.558;18.150;2023-10-13T05:39:36;99798.59;;;15.67;94.10
54592;BME280;40488;48.558;18.150;2023-10-13T05:42:19;99796.91;;;15.66;94.28
54592;BME280;40488;48.558;18.150;2023-10-13T05:45:02;99799.38;;;15.69;94.74
54592;BME280;40488;48.558;18.150;2023-10-13T05:47:51;99800.25;;;15.71;94.91
54592;BME280;40488;48.558;18.150;2023-10-13T05:50:40;99795.91;;;15.73;94.73
54592;BME280;40488;48.558;18.150;2023-10-13T05:53:20;99797.47;;;15.79;94.88
54592;BME280;40488;48.558;18.150;2023-10-13T05:56:01;99813.69;;;15.85;94.97
54592;BME280;40488;48.558;18.150;2023-10-13T05:58:39;99806.78;;;15.87;94.76
54592;BME280;40488;48.558;18.150;2023-10-13T06:01:18;99810.09;;;15.92;94.54
54592;BME280;40488;48.558;18.150;2023-10-13T06:03:57;99799.66;;;15.98;94.63
54592;BME280;40488;48.558;18.150;2023-10-13T06:06:35;99798.75;;;16.01;94.46
54592;BME280;40488;48.558;18.150;2023-10-13T06:09:15;99797.91;;;16.00;94.64
54592;BME280;40488;48.558;18.150;2023-10-13T06:11:53;99809.91;;;16.01;94.79
54592;BME280;40488;48.558;18.150;2023-10-13T06:14:32;99808.03;;;16.08;94.82
54592;BME280;40488;48.558;18.150;2023-10-13T06:17:11;99808.00;;;16.11;94.84
54592;BME280;40488;48.558;18.150;2023-10-13T06:19:50;99807.88;;;16.17;95.13
54592;BME280;40488;48.558;18.150;2023-10-13T06:22:28;99809.44;;;16.23;95.18
54592;BME280;40488;48.558;18.150;2023-10-13T06:25:08;99814.47;;;16.29;95.16
54592;BME280;40488;48.558;18.150;2023-10-13T06:27:46;99816.91;;;16.35;95.31
54592;BME280;40488;48.558;18.150;2023-10-13T06:30:25;99818.63;;;16.34;95.82
54592;BME280;40488;48.558;18.150;2023-10-13T06:32:54;99817.66;;;16.40;95.38
54592;BME280;40488;48.558;18.150;2023-10-13T06:35:23;99817.53;;;16.46;95.36
54592;BME280;40488;48.558;18.150;2023-10-13T06:37:52;99818.31;;;16.49;95.08
54592;BME280;40488;48.558;18.150;2023-10-13T06:40:22;99818.25;;;16.51;95.13
54592;BME280;40488;48.558;18.150;2023-10-13T06:42:54;99822.50;;;16.55;95.22
54592;BME280;40488;48.558;18.150;2023-10-13T06:45:41;99817.34;;;16.55;94.85
54592;BME280;40488;48.558;18.150;2023-10-13T06:48:10;99825.84;;;16.58;95.05
54592;BME280;40488;48.558;18.150;2023-10-13T06:50:48;99824.00;;;16.65;95.12
54592;BME280;40488;48.558;18.150;2023-10-13T06:53:19;99828.25;;;16.66;94.62
54592;BME280;40488;48.558;18.150;2023-10-13T06:55:50;99826.59;;;16.63;94.52
54592;BME280;40488;48.558;18.150;2023-10-13T06:58:26;99829.97;;;16.67;94.47
54592;BME280;40488;48.558;18.150;2023-10-13T07:00:56;99839.47;;;16.65;94.75
54592;BME280;40488;48.558;18.150;2023-10-13T07:03:26;99834.22;;;16.68;94.60
54592;BME280;40488;48.558;18.150;2023-10-13T07:05:55;99838.41;;;16.73;94.31
54592;BME280;40488;48.558;18.150;2023-10-13T07:08:26;99851.25;;;16.75;94.26
54592;BME280;40488;48.558;18.150;2023-10-13T07:11:00;99851.97;;;16.80;94.32
54592;BME280;40488;48.558;18.150;2023-10-13T07:13:33;99852.72;;;16.85;94.19
54592;BME280;40488;48.558;18.150;2023-10-13T07:16:06;99861.13;;;16.93;94.04
54592;BME280;40488;48.558;18.150;2023-10-13T07:18:55;99852.44;;;16.97;93.84
54592;BME280;40488;48.558;18.150;2023-10-13T07:21:33;99856.78;;;16.95;93.82
54592;BME280;40488;48.558;18.150;2023-10-13T07:24:03;99863.53;;;17.01;93.58
54592;BME280;40488;48.558;18.150;2023-10-13T07:26:40;99866.81;;;17.07;93.42
54592;BME280;40488;48.558;18.150;2023-10-13T07:29:13;99867.69;;;17.06;93.26
54592;BME280;40488;48.558;18.150;2023-10-13T07:31:42;99860.78;;;17.08;93.20
54592;BME280;40488;48.558;18.150;2023-10-13T07:34:13;99860.66;;;17.13;92.90
54592;BME280;40488;48.558;18.150;2023-10-13T07:36:53;99860.56;;;17.17;93.02
54592;BME280;40488;48.558;18.150;2023-10-13T07:39:28;99863.03;;;17.20;92.65
54592;BME280;40488;48.558;18.150;2023-10-13T07:42:04;99864.91;;;17.15;92.35
54592;BME280;40488;48.558;18.150;2023-10-13T07:44:36;99864.59;;;17.27;92.33
54592;BME280;40488;48.558;18.150;2023-10-13T07:47:07;99859.03;;;17.44;92.30
54592;BME280;40488;48.558;18.150;2023-10-13T07:49:38;99864.81;;;17.54;91.90
54592;BME280;40488;48.558;18.150;2023-10-13T07:52:09;99857.91;;;17.54;91.57
54592;BME280;40488;48.558;18.150;2023-10-13T07:55:04;99855.94;;;17.64;91.24
54592;BME280;40488;48.558;18.150;2023-10-13T07:57:50;99863.53;;;17.70;90.80
54592;BME280;40488;48.558;18.150;2023-10-13T08:00:24;99864.00;;;17.84;90.65
54592;BME280;40488;48.558;18.150;2023-10-13T08:03:14;99856.69;;;17.99;90.22
54592;BME280;40488;48.558;18.150;2023-10-13T08:05:59;99860.59;;;18.13;89.83
54592;BME280;40488;48.558;18.150;2023-10-13T08:08:34;99856.78;;;18.26;89.56
54592;BME280;40488;48.558;18.150;2023-10-13T08:11:06;99851.44;;;18.32;88.85
54592;BME280;40488;48.558;18.150;2023-10-13T08:13:40;99850.41;;;18.37;88.57
54592;BME280;40488;48.558;18.150;2023-10-13T08:16:33;99855.13;;;18.52;87.86
54592;BME280;40488;48.558;18.150;2023-10-13T08:19:18;99864.16;;;18.67;87.24
54592;BME280;40488;48.558;18.150;2023-10-13T08:21:48;99858.63;;;18.79;86.70
54592;BME280;40488;48.558;18.150;2023-10-13T08:24:25;99859.88;;;18.94;86.19
54592;BME280;40488;48.558;18.150;2023-10-13T08:27:17;99851.53;;;19.12;85.06
54592;BME280;40488;48.558;18.150;2023-10-13T08:30:03;99852.56;;;19.32;84.50
54592;BME280;40488;48.558;18.150;2023-10-13T08:32:41;99852.41;;;19.38;83.60
54592;BME280;40488;48.558;18.150;2023-10-13T08:35:22;99854.72;;;19.46;82.49
54592;BME280;40488;48.558;18.150;2023-10-13T08:38:04;99854.78;;;19.45;81.83
54592;BME280;40488;48.558;18.150;2023-10-13T08:40:58;99851.94;;;19.52;81.21
54592;BME280;40488;48.558;18.150;2023-10-13T08:43:39;99857.56;;;19.63;80.82
54592;BME280;40488;48.558;18.150;2023-10-13T08:46:14;99846.09;;;19.70;79.83
54592;BME280;40488;48.558;18.150;2023-10-13T08:48:56;99852.53;;;19.83;79.09
54592;BME280;40488;48.558;18.150;2023-10-13T08:51:42;99853.00;;;19.94;78.94
54592;BME280;40488;48.558;18.150;2023-10-13T08:54:18;99849.09;;;20.06;78.60
54592;BME280;40488;48.558;18.150;2023-10-13T08:57:02;99848.47;;;20.01;78.32
54592;BME280;40488;48.558;18.150;2023-10-13T08:59:57;99854.38;;;20.04;78.53
54592;BME280;40488;48.558;18.150;2023-10-13T09:02:48;99867.13;;;20.11;78.37
54592;BME280;40488;48.558;18.150;2023-10-13T09:05:27;99855.16;;;20.06;78.36
54592;BME280;40488;48.558;18.150;2023-10-13T09:08:07;99853.13;;;20.15;78.40
54592;BME280;40488;48.558;18.150;2023-10-13T09:10:36;99861.25;;;20.29;78.24
54592;BME280;40488;48.558;18.150;2023-10-13T09:13:12;99853.91;;;20.40;78.11
54592;BME280;40488;48.558;18.150;2023-10-13T09:15:48;99853.91;;;20.40;77.38
54592;BME280;40488;48.558;18.150;2023-10-13T09:18:28;99855.72;;;20.38;77.46
54592;BME280;40488;48.558;18.150;2023-10-13T09:21:07;99850.31;;;20.44;77.31
54592;BME280;40488;48.558;18.150;2023-10-13T09:23:58;99845.75;;;20.50;77.52
54592;BME280;40488;48.558;18.150;2023-10-13T09:26:36;99842.78;;;20.59;77.26
54592;BME280;40488;48.558;18.150;2023-10-13T09:29:14;99837.78;;;20.77;77.30
54592;BME280;40488;48.558;18.150;2023-10-13T09:31:47;99833.34;;;20.80;76.71
54592;BME280;40488;48.558;18.150;2023-10-13T09:34:23;99834.22;;;20.79;76.25
54592;BME280;40488;48.558;18.150;2023-10-13T09:36:58;99842.38;;;20.70;75.37
54592;BME280;40488;48.558;18.150;2023-10-13T09:39:27;99853.66;;;20.69;75.38
54592;BME280;40488;48.558;18.150;2023-10-13T09:42:02;99851.91;;;20.69;75.60
54592;BME280;40488;48.558;18.150;2023-10-13T09:44:30;99850.84;;;20.75;75.66
54592;BME280;40488;48.558;18.150;2023-10-13T09:47:01;99846.94;;;20.85;75.48
54592;BME280;40488;48.558;18.150;2023-10-13T09:49:39;99844.19;;;20.90;75.13
54592;BME280;40488;48.558;18.150;2023-10-13T09:52:15;99851.78;;;20.94;75.30
54592;BME280;40488;48.558;18.150;2023-10-13T09:54:58;99848.28;;;20.95;75.29
54592;BME280;40488;48.558;18.150;2023-10-13T09:57:34;99837.88;;;20.95;75.25
54592;BME280;40488;48.558;18.150;2023-10-13T10:00:12;99833.47;;;20.97;75.42
54592;BME280;40488;48.558;18.150;2023-10-13T10:02:54;99828.91;;;21.04;75.30
54592;BME280;40488;48.558;18.150;2023-10-13T10:05:28;99838.09;;;21.12;75.18
54592;BME280;40488;48.558;18.150;2023-10-13T10:08:05;99828.34;;;21.17;74.94
54592;BME280;40488;48.558;18.150;2023-10-13T10:11:03;99821.09;;;21.25;74.04
54592;BME280;40488;48.558;18.150;2023-10-13T10:13:37;99829.53;;;21.30;73.93
54592;BME280;40488;48.558;18.150;2023-10-13T10:16:11;99825.91;;;21.34;73.55
54592;BME280;40488;48.558;18.150;2023-10-13T10:18:42;99833.31;;;21.44;73.64
54592;BME280;40488;48.558;18.150;2023-10-13T10:21:12;99826.94;;;21.51;73.23
54592;BME280;40488;48.558;18.150;2023-10-13T10:23:52;99821.50;;;21.57;72.68
54592;BME280;40488;48.558;18.150;2023-10-13T10:26:21;99825.44;;;21.65;72.50
54592;BME280;40488;48.558;18.150;2023-10-13T10:28:52;99818.59;;;21.83;72.33
54592;BME280;40488;48.558;18.150;2023-10-13T10:31:31;99823.75;;;22.03;71.46
54592;BME280;40488;48.558;18.150;2023-10-13T10:34:12;99818.78;;;22.17;70.95
54592;BME280;40488;48.558;18.150;2023-10-13T10:36:47;99823.00;;;22.20;70.46
54592;BME280;40488;48.558;18.150;2023-10-13T10:39:19;99818.84;;;22.16;70.15
54592;BME280;40488;48.558;18.150;2023-10-13T10:41:49;99814.28;;;22.21;69.87
54592;BME280;40488;48.558;18.150;2023-10-13T10:44:20;99815.97;;;22.40;69.69
54592;BME280;40488;48.558;18.150;2023-10-13T10:47:13;99809.56;;;22.66;68.97
54592;BME280;40488;48.558;18.150;2023-10-13T10:49:48;99808.66;;;22.67;68.83
54592;BME280;40488;48.558;18.150;2023-10-13T10:52:18;99811.72;;;22.56;68.53
54592;BME280;40488;48.558;18.150;2023-10-13T10:54:58;99802.59;;;22.48;69.01
54592;BME280;40488;48.558;18.150;2023-10-13T10:57:27;99801.75;;;22.47;68.85
54592;BME280;40488;48.558;18.150;2023-10-13T11:00:05;99798.81;;;22.36;69.00
54592;BME280;40488;48.558;18.150;2023-10-13T11:02:53;99800.81;;;22.31;69.04
54592;BME280;40488;48.558;18.150;2023-10-13T11:05:23;99798.97;;;22.33;68.98
54592;BME280;40488;48.558;18.150;2023-10-13T11:08:01;99793.91;;;22.30;68.88
54592;BME280;40488;48.558;18.150;2023-10-13T11:10:36;99783.50;;;22.30;68.91
54592;BME280;40488;48.558;18.150;2023-10-13T11:13:14;99777.50;;;22.47;68.85
54592;BME280;40488;48.558;18.150;2023-10-13T11:15:49;99780.25;;;22.80;68.34
54592;BME280;40488;48.558;18.150;2023-10-13T11:18:29;99779.97;;;23.03;67.91
54592;BME280;40488;48.558;18.150;2023-10-13T11:21:01;99781.34;;;23.27;67.15
54592;BME280;40488;48.558;18.150;2023-10-13T11:23:35;99782.38;;;23.42;66.88
54592;BME280;40488;48.558;18.150;2023-10-13T11:26:07;99779.88;;;23.56;66.02
54592;BME280;40488;48.558;18.150;2023-10-13T11:28:35;99778.63;;;23.63;65.28
54592;BME280;40488;48.558;18.150;2023-10-13T11:31:05;99778.88;;;23.58;65.01
54592;BME280;40488;48.558;18.150;2023-10-13T11:33:47;99773.81;;;23.55;64.86
54592;BME280;40488;48.558;18.150;2023-10-13T11:36:18;99765.13;;;23.39;65.10
54592;BME280;40488;48.558;18.150;2023-10-13T11:38:51;99767.53;;;23.42;65.61
54592;BME280;40488;48.558;18.150;2023-10-13T11:41:25;99759.97;;;23.38;65.08
54592;BME280;40488;48.558;18.150;2023-10-13T11:44:03;99766.19;;;23.35;65.09
54592;BME280;40488;48.558;18.150;2023-10-13T11:46:40;99758.66;;;23.29;64.79
54592;BME280;40488;48.558;18.150;2023-10-13T11:49:18;99752.69;;;23.27;64.36
54592;BME280;40488;48.558;18.150;2023-10-13T11:51:59;99757.91;;;23.27;64.47
54592;BME280;40488;48.558;18.150;2023-10-13T11:54:41;99760.06;;;23.19;64.83
54592;BME280;40488;48.558;18.150;2023-10-13T11:57:10;99753.31;;;23.15;64.91
54592;BME280;40488;48.558;18.150;2023-10-13T11:59:39;99755.44;;;23.24;64.92
54592;BME280;40488;48.558;18.150;2023-10-13T12:02:22;99744.94;;;23.25;64.42
54592;BME280;40488;48.558;18.150;2023-10-13T12:05:06;99741.03;;;23.34;64.34
54592;BME280;40488;48.558;18.150;2023-10-13T12:07:41;99740.97;;;23.36;64.34
54592;BME280;40488;48.558;18.150;2023-10-13T12:10:21;99737.72;;;23.48;64.51
54592;BME280;40488;48.558;18.150;2023-10-13T12:13:03;99729.13;;;23.78;63.79
54592;BME280;40488;48.558;18.150;2023-10-13T12:15:36;99723.78;;;24.13;63.17
54592;BME280;40488;48.558;18.150;2023-10-13T12:18:19;99722.59;;;24.34;61.88
54592;BME280;40488;48.558;18.150;2023-10-13T12:20:51;99713.63;;;24.53;61.10
54592;BME280;40488;48.558;18.150;2023-10-13T12:23:19;99719.88;;;24.51;61.32
54592;BME280;40488;48.558;18.150;2023-10-13T12:26:00;99707.41;;;24.56;60.37
54592;BME280;40488;48.558;18.150;2023-10-13T12:28:33;99714.41;;;24.85;60.29
54592;BME280;40488;48.558;18.150;2023-10-13T12:31:18;99709.06;;;25.16;59.55
54592;BME280;40488;48.558;18.150;2023-10-13T12:33:54;99704.31;;;25.23;58.07
54592;BME280;40488;48.558;18.150;2023-10-13T12:36:34;99706.00;;;25.24;58.25
54592;BME280;40488;48.558;18.150;2023-10-13T12:39:20;99701.59;;;25.24;58.34
54592;BME280;40488;48.558;18.150;2023-10-13T12:42:00;99701.97;;;25.33;58.72
54592;BME280;40488;48.558;18.150;2023-10-13T12:44:39;99695.06;;;25.31;58.05
54592;BME280;40488;48.558;18.150;2023-10-13T12:47:17;99689.88;;;25.46;57.57
54592;BME280;40488;48.558;18.150;2023-10-13T12:49:56;99678.28;;;25.64;57.95
54592;BME280;40488;48.558;18.150;2023-10-13T12:52:35;99694.72;;;25.52;58.36
54592;BME280;40488;48.558;18.150;2023-10-13T12:55:04;99681.22;;;25.44;58.34
54592;BME280;40488;48.558;18.150;2023-10-13T12:57:39;99673.63;;;25.55;57.50
54592;BME280;40488;48.558;18.150;2023-10-13T13:00:14;99677.88;;;25.70;57.19
54592;BME280;40488;48.558;18.150;2023-10-13T13:02:51;99673.38;;;25.86;57.08
54592;BME280;40488;48.558;18.150;2023-10-13T13:05:24;99667.56;;;25.95;56.59
54592;BME280;40488;48.558;18.150;2023-10-13T13:07:58;99674.44;;;26.10;56.17
54592;BME280;40488;48.558;18.150;2023-10-13T13:10:27;99669.56;;;26.18;56.13
54592;BME280;40488;48.558;18.150;2023-10-13T13:13:06;99662.91;;;26.27;56.37
54592;BME280;40488;48.558;18.150;2023-10-13T13:15:36;99663.75;;;26.27;55.83
54592;BME280;40488;48.558;18.150;2023-10-13T13:18:05;99659.31;;;26.28;55.21
54592;BME280;40488;48.558;18.150;2023-10-13T13:20:40;99654.31;;;26.25;55.17
54592;BME280;40488;48.558;18.150;2023-10-13T13:23:21;99654.94;;;26.28;54.92
54592;BME280;40488;48.558;18.150;2023-10-13T13:25:54;99657.00;;;26.23;54.88
54592;BME280;40488;48.558;18.150;2023-10-13T13:28:27;99646.97;;;26.17;54.42
54592;BME280;40488;48.558;18.150;2023-10-13T13:30:57;99649.38;;;26.06;54.51
54592;BME280;40488;48.558;18.150;2023-10-13T13:33:26;99648.69;;;25.90;54.23
54592;BME280;40488;48.558;18.150;2023-10-13T13:36:01;99640.72;;;25.79;53.13
54592;BME280;40488;48.558;18.150;2023-10-13T13:38:31;99642.78;;;25.74;53.41